createdAt,value
2019-05-17T00:00:57.340Z,20.02
2019-05-17T00:03:51.915Z,14.70
2019-05-17T00:06:47.644Z,14.53
2019-05-17T00:09:42.182Z,18.65
2019-05-17T00:12:37.026Z,22.85
2019-05-17T00:15:31.626Z,17.37
2019-05-17T00:18:26.490Z,20.00
2019-05-17T00:21:20.744Z,20.37
2019-05-17T00:24:18.091Z,26.15
2019-05-17T00:27:12.607Z,27.20
2019-05-17T00:30:07.971Z,25.32
2019-05-17T00:33:03.307Z,32.17
2019-05-17T00:35:57.774Z,37.85
2019-05-17T00:38:53.463Z,41.77
2019-05-17T00:41:47.983Z,36.88
2019-05-17T00:44:47.174Z,46.23
2019-05-17T00:47:42.818Z,40.92
2019-05-17T00:50:38.160Z,45.10
2019-05-17T00:53:33.736Z,54.27
2019-05-17T00:56:28.215Z,40.43
2019-05-17T00:59:22.342Z,46.02
2019-05-17T01:02:17.199Z,50.40
2019-05-17T01:05:11.937Z,55.50
2019-05-17T01:08:07.333Z,46.50
2019-05-17T01:11:06.933Z,56.73
2019-05-17T01:14:02.980Z,52.43
2019-05-17T01:16:57.207Z,55.43
2019-05-17T01:19:51.806Z,54.08
2019-05-17T01:22:47.504Z,62.50
2019-05-17T01:25:41.855Z,51.95
2019-05-17T01:28:37.167Z,57.85
2019-05-17T01:31:32.942Z,42.58
2019-05-17T01:34:27.715Z,48.33
2019-05-17T01:37:22.388Z,57.35
2019-05-17T01:40:17.838Z,44.80
2019-05-17T01:43:13.131Z,56.77
2019-05-17T01:46:07.480Z,44.18
2019-05-17T01:49:02.356Z,46.88
2019-05-17T01:51:58.383Z,42.38
2019-05-17T01:54:57.011Z,44.27
2019-05-17T01:57:51.674Z,46.02
2019-05-17T02:00:46.612Z,38.63
2019-05-17T02:03:41.592Z,39.92
2019-05-17T02:06:36.573Z,41.50
2019-05-17T02:09:37.698Z,37.25
2019-05-17T02:12:29.364Z,36.80
2019-05-17T02:15:26.701Z,47.62
2019-05-17T02:18:20.729Z,42.08
2019-05-17T02:21:16.851Z,41.30
2019-05-17T02:24:16.955Z,47.80
2019-05-17T02:27:12.338Z,40.52
2019-05-17T02:30:07.264Z,45.00
2019-05-17T02:33:04.044Z,39.48
2019-05-17T02:36:02.840Z,43.98
2019-05-17T02:39:03.589Z,40.70
2019-05-17T02:42:02.547Z,38.45
2019-05-17T02:44:57.229Z,37.98
2019-05-17T02:47:53.703Z,39.10
2019-05-17T02:50:48.951Z,40.15
2019-05-17T02:53:43.807Z,33.05
2019-05-17T02:56:39.592Z,42.90
2019-05-17T02:59:33.809Z,39.48
2019-05-17T03:02:33.845Z,43.92
2019-05-17T03:05:25.501Z,48.38
2019-05-17T03:08:23.483Z,42.88
2019-05-17T03:11:22.689Z,35.75
2019-05-17T03:14:19.567Z,36.75
2019-05-17T03:17:14.502Z,45.55
2019-05-17T03:20:14.173Z,41.75
2019-05-17T03:23:12.660Z,54.88
2019-05-17T03:26:07.972Z,47.70
2019-05-17T03:29:06.709Z,48.98
2019-05-17T03:32:08.601Z,45.28
2019-05-17T03:35:06.770Z,54.58
2019-05-17T03:37:58.461Z,49.35
2019-05-17T03:41:53.559Z,45.85
2019-05-17T03:44:48.253Z,47.40
2019-05-17T03:47:44.612Z,47.48
2019-05-17T03:50:38.160Z,50.43
2019-05-17T03:53:33.639Z,46.85
2019-05-17T03:56:28.525Z,47.50
2019-05-17T03:59:24.406Z,48.48
2019-05-17T04:02:22.820Z,56.48
2019-05-17T04:05:15.890Z,48.38
2019-05-17T04:08:13.633Z,57.35
2019-05-17T04:11:22.151Z,54.63
2019-05-17T04:14:06.047Z,48.63
2019-05-17T04:17:03.031Z,51.35
2019-05-17T04:19:57.083Z,37.28
2019-05-17T04:22:52.841Z,55.33
2019-05-17T04:25:47.639Z,43.68
2019-05-17T04:28:44.044Z,46.68
2019-05-17T04:31:43.496Z,49.45
2019-05-17T04:34:43.412Z,37.03
2019-05-17T04:37:38.610Z,46.48
2019-05-17T04:40:34.463Z,41.42
2019-05-17T04:43:33.408Z,38.02
2019-05-17T04:46:32.416Z,43.02
2019-05-17T04:49:27.853Z,32.60
2019-05-17T04:52:25.209Z,44.83
2019-05-17T04:55:23.056Z,29.57
2019-05-17T04:58:18.454Z,31.42
2019-05-17T05:01:13.790Z,36.68
2019-05-17T05:04:15.122Z,32.95
2019-05-17T05:07:22.490Z,29.18
2019-05-17T05:10:29.022Z,33.08
2019-05-17T05:13:33.395Z,25.62
2019-05-17T05:16:36.509Z,30.08
2019-05-17T05:23:35.498Z,22.93
2019-05-17T05:26:42.474Z,24.57
2019-05-17T05:30:02.991Z,18.23
2019-05-17T05:33:01.880Z,20.68
2019-05-17T05:36:14.492Z,25.60
2019-05-17T05:41:36.711Z,17.25
2019-05-17T05:42:55.618Z,20.57
2019-05-17T05:46:45.393Z,20.77
2019-05-17T05:50:01.968Z,20.35
2019-05-17T05:53:04.980Z,21.33
2019-05-17T05:56:07.023Z,16.93
2019-05-17T05:59:08.018Z,16.27
2019-05-17T06:02:47.359Z,16.37
2019-05-17T06:05:46.910Z,22.65
2019-05-17T06:08:46.776Z,23.40
2019-05-17T06:11:59.173Z,22.77
2019-05-17T06:14:58.583Z,19.80
2019-05-17T06:17:57.050Z,17.35
2019-05-17T06:20:55.359Z,19.80
2019-05-17T06:24:47.468Z,18.20
2019-05-17T06:27:32.004Z,15.58
2019-05-17T06:30:32.222Z,15.78
2019-05-17T06:33:31.070Z,19.73
2019-05-17T06:36:25.287Z,11.10
2019-05-17T06:40:02.407Z,19.52
2019-05-17T06:43:04.183Z,12.55
2019-05-17T06:46:08.923Z,12.28
2019-05-17T06:49:11.734Z,17.73
2019-05-17T06:52:07.645Z,20.00
2019-05-17T06:55:05.733Z,16.73
2019-05-17T06:58:03.785Z,10.55
2019-05-17T07:01:06.820Z,15.45
2019-05-17T07:04:02.385Z,18.10
2019-05-17T07:07:17.901Z,11.63
2019-05-17T07:10:25.732Z,15.58
2019-05-17T07:21:29.705Z,13.38
2019-05-17T07:24:40.835Z,16.35
2019-05-17T07:31:40.469Z,11.78
2019-05-17T07:35:05.279Z,14.38
2019-05-17T07:38:23.059Z,16.67
2019-05-17T07:41:22.604Z,13.60
2019-05-17T07:44:40.212Z,14.15
2019-05-17T07:47:33.698Z,11.35
2019-05-17T07:50:45.735Z,14.85
2019-05-17T07:54:15.330Z,11.97
2019-05-17T07:57:25.824Z,20.65
2019-05-17T08:00:31.914Z,14.63
2019-05-17T08:03:32.836Z,19.87
2019-05-17T08:06:30.578Z,18.98
2019-05-17T08:09:30.043Z,18.98
2019-05-17T08:12:30.421Z,20.23
2019-05-17T08:15:27.686Z,20.88
2019-05-17T08:18:23.041Z,19.25
2019-05-17T08:21:19.906Z,15.68
2019-05-17T08:24:16.105Z,16.93
2019-05-17T08:27:16.395Z,18.75
2019-05-17T08:30:13.616Z,23.77
2019-05-17T08:33:24.001Z,24.52
2019-05-17T08:36:21.280Z,15.38
2019-05-17T08:39:20.757Z,19.27
2019-05-17T08:42:20.327Z,18.05
2019-05-17T08:45:15.493Z,16.02
2019-05-17T08:48:11.733Z,16.77
2019-05-17T08:51:11.282Z,24.87
2019-05-17T08:54:11.038Z,16.17
2019-05-17T08:57:09.879Z,16.35
2019-05-17T09:00:12.759Z,21.52
2019-05-17T09:03:20.680Z,18.70
2019-05-17T09:07:29.494Z,24.20
2019-05-17T09:11:02.539Z,12.90
2019-05-17T09:13:57.503Z,17.95
2019-05-17T09:16:50.544Z,18.62
2019-05-17T09:19:50.937Z,17.95
2019-05-17T09:22:47.794Z,20.97
2019-05-17T09:25:51.062Z,17.82
2019-05-17T09:37:53.859Z,20.27
2019-05-17T09:41:29.350Z,17.20
2019-05-17T09:45:12.964Z,20.57
2019-05-17T09:48:10.242Z,15.05
2019-05-17T09:51:23.622Z,20.72
2019-05-17T09:54:41.684Z,15.78
2019-05-17T09:57:29.805Z,21.52
2019-05-17T10:00:26.146Z,21.57
2019-05-17T10:03:24.089Z,15.90
2019-05-17T10:06:28.740Z,19.10
2019-05-17T10:09:23.626Z,14.73
2019-05-17T10:12:20.740Z,19.10
2019-05-17T10:15:17.676Z,19.02
2019-05-17T10:18:16.473Z,21.70
2019-05-17T10:21:19.896Z,16.73
2019-05-17T10:24:19.910Z,17.27
2019-05-17T10:27:19.634Z,19.42
2019-05-17T10:30:46.108Z,18.73
2019-05-17T10:33:45.403Z,14.90
2019-05-17T10:36:40.775Z,15.68
2019-05-17T10:39:38.435Z,15.50
2019-05-17T10:42:32.156Z,10.25
2019-05-17T10:45:27.527Z,12.43
2019-05-17T10:48:24.492Z,15.50
2019-05-17T10:51:22.091Z,14.85
2019-05-17T10:54:33.959Z,13.32
2019-05-17T10:57:40.191Z,17.15
2019-05-17T11:00:40.949Z,17.27
2019-05-17T11:03:35.541Z,14.23
2019-05-17T11:06:41.206Z,19.40
2019-05-17T11:09:40.233Z,14.00
2019-05-17T11:12:35.395Z,11.65
2019-05-17T11:16:03.097Z,10.90
2019-05-17T11:19:08.523Z,12.47
2019-05-17T11:22:04.370Z,15.35
2019-05-17T11:25:03.134Z,13.58
2019-05-17T11:28:04.236Z,15.23
2019-05-17T11:31:02.211Z,26.23
2019-05-17T11:34:00.867Z,11.12
2019-05-17T11:37:10.625Z,9.33
2019-05-17T11:40:08.148Z,12.80
2019-05-17T11:43:06.082Z,12.23
2019-05-17T11:46:05.632Z,12.85
2019-05-17T11:49:03.740Z,9.28
2019-05-17T11:51:59.455Z,12.05
2019-05-17T11:54:59.158Z,10.72
2019-05-17T11:57:55.573Z,13.05
2019-05-17T12:00:51.318Z,17.02
2019-05-17T12:03:51.420Z,24.50
2019-05-17T12:06:46.823Z,22.00
2019-05-17T12:09:43.939Z,22.00
2019-05-17T12:12:39.234Z,24.43
2019-05-17T12:15:45.162Z,18.40
2019-05-17T12:18:35.831Z,23.80
2019-05-17T12:21:32.119Z,27.48
2019-05-17T12:24:28.191Z,27.73
2019-05-17T12:27:23.400Z,32.08
2019-05-17T12:30:19.071Z,22.27
2019-05-17T12:33:13.809Z,24.67
2019-05-17T12:36:09.182Z,19.95
2019-05-17T12:39:03.186Z,26.85
2019-05-17T12:42:01.873Z,26.15
2019-05-17T12:44:56.619Z,29.27
2019-05-17T12:47:51.401Z,23.38
2019-05-17T12:50:45.547Z,21.25
2019-05-17T12:53:40.447Z,26.48
2019-05-17T12:56:35.526Z,27.93
2019-05-17T12:59:30.830Z,21.50
2019-05-17T13:02:25.901Z,29.82
2019-05-17T13:05:22.130Z,19.65
2019-05-17T13:08:18.838Z,23.52
2019-05-17T13:11:14.761Z,22.37
2019-05-17T13:14:09.496Z,27.90
2019-05-17T13:17:05.343Z,21.57
2019-05-17T13:20:06.282Z,19.23
2019-05-17T13:23:03.456Z,34.90
2019-05-17T13:25:59.616Z,38.25
2019-05-17T13:28:55.658Z,16.50
2019-05-17T13:31:53.108Z,22.02
2019-05-17T13:34:48.733Z,28.75
2019-05-17T13:37:44.554Z,24.15
2019-05-17T13:40:41.943Z,14.65
2019-05-17T13:43:36.972Z,17.17
2019-05-17T13:46:35.950Z,26.40
2019-05-17T13:49:32.927Z,16.00
2019-05-17T13:52:29.908Z,23.47
2019-05-17T13:55:27.158Z,13.48
2019-05-17T13:58:25.072Z,17.12
2019-05-17T14:01:22.272Z,14.95
2019-05-17T14:04:19.976Z,21.80
2019-05-17T14:07:18.735Z,21.68
2019-05-17T14:10:26.853Z,17.23
2019-05-17T14:13:15.242Z,14.43
2019-05-17T14:16:12.918Z,17.82
2019-05-17T14:19:11.823Z,19.73
2019-05-17T14:22:12.076Z,17.37
2019-05-17T14:25:10.623Z,20.65
2019-05-17T14:28:11.245Z,22.50
2019-05-17T14:31:04.067Z,20.37
2019-05-17T14:33:59.740Z,16.02
2019-05-17T14:36:54.647Z,22.32
2019-05-17T14:39:50.157Z,21.07
2019-05-17T14:42:47.900Z,20.95
2019-05-17T14:45:42.929Z,18.80
2019-05-17T14:48:38.316Z,19.45
2019-05-17T14:51:33.578Z,23.07
2019-05-17T14:54:28.842Z,17.85
2019-05-17T14:57:23.685Z,21.17
2019-05-17T15:00:18.607Z,13.65
2019-05-17T15:03:13.471Z,27.52
2019-05-17T15:06:09.189Z,27.40
2019-05-17T15:09:11.208Z,20.05
2019-05-17T15:12:04.932Z,14.43
2019-05-17T15:15:01.785Z,27.30
2019-05-17T15:17:59.325Z,22.42
2019-05-17T15:20:55.671Z,19.15
2019-05-17T15:23:51.618Z,24.30
2019-05-17T15:27:04.084Z,20.95
2019-05-17T15:29:45.761Z,18.02
2019-05-17T15:32:41.407Z,18.52
2019-05-17T15:35:35.729Z,19.02
2019-05-17T15:38:29.991Z,28.80
2019-05-17T15:41:26.611Z,27.77
2019-05-17T15:44:22.881Z,27.67
2019-05-17T15:47:20.300Z,20.30
2019-05-17T15:50:17.631Z,29.25
2019-05-17T15:53:13.038Z,24.87
2019-05-17T15:56:09.847Z,30.55
2019-05-17T15:59:05.404Z,21.73
2019-05-17T16:02:01.317Z,26.00
2019-05-17T16:04:57.260Z,24.55
2019-05-17T16:07:54.948Z,26.57
2019-05-17T16:10:54.231Z,31.33
2019-05-17T16:13:51.356Z,19.17
2019-05-17T16:16:47.583Z,22.93
2019-05-17T16:19:44.157Z,24.67
2019-05-17T16:22:38.982Z,22.70
2019-05-17T16:25:34.202Z,22.40
2019-05-17T16:28:28.367Z,20.72
2019-05-17T16:31:25.765Z,20.62
2019-05-17T16:34:20.008Z,25.77
2019-05-17T16:37:14.160Z,28.40
2019-05-17T16:40:09.390Z,27.80
2019-05-17T16:43:17.035Z,19.37
2019-05-17T16:46:02.055Z,25.88
2019-05-17T16:48:59.766Z,24.18
2019-05-17T16:51:57.901Z,17.37
2019-05-17T16:54:55.896Z,27.65
2019-05-17T16:57:50.791Z,26.68
2019-05-17T17:00:46.819Z,21.68
2019-05-17T17:03:44.492Z,18.73
2019-05-17T17:06:39.900Z,19.65
2019-05-17T17:09:37.369Z,25.65
2019-05-17T17:12:33.463Z,20.50
2019-05-17T17:15:28.737Z,23.12
2019-05-17T17:18:23.897Z,24.37
2019-05-17T17:21:18.462Z,21.02
2019-05-17T17:24:15.477Z,24.63
2019-05-17T17:27:13.750Z,21.05
2019-05-17T17:30:12.187Z,23.87
2019-05-17T17:33:10.413Z,30.60
2019-05-17T17:36:07.643Z,23.18
2019-05-17T17:39:08.059Z,24.45
2019-05-17T17:42:03.476Z,17.90
2019-05-17T17:45:00.458Z,24.70
2019-05-17T17:47:57.993Z,19.50
2019-05-17T17:50:55.906Z,23.05
2019-05-17T17:53:54.343Z,23.02
2019-05-17T17:56:50.332Z,20.00
2019-05-17T17:59:47.564Z,22.52
2019-05-17T18:02:43.787Z,22.60
2019-05-17T18:05:38.657Z,27.85
2019-05-17T18:08:34.809Z,23.30
2019-05-17T18:11:31.529Z,21.33
2019-05-17T18:14:32.327Z,19.80
2019-05-17T18:17:29.345Z,20.92
2019-05-17T18:20:25.561Z,17.77
2019-05-17T18:23:23.459Z,17.30
2019-05-17T18:26:30.877Z,23.32
2019-05-17T18:29:25.810Z,20.88
2019-05-17T18:32:21.540Z,23.60
2019-05-17T18:35:19.117Z,18.00
2019-05-17T18:38:15.224Z,24.40
2019-05-17T18:41:10.267Z,29.85
2019-05-17T18:44:05.359Z,21.30
2019-05-17T18:47:00.558Z,21.40
2019-05-17T18:49:55.221Z,17.80
2019-05-17T18:52:50.914Z,19.48
2019-05-17T18:55:46.123Z,21.05
2019-05-17T18:58:41.005Z,23.52
2019-05-17T19:01:36.169Z,15.88
2019-05-17T19:04:31.002Z,31.05
2019-05-17T19:07:25.691Z,21.35
2019-05-17T19:10:23.440Z,24.52
2019-05-17T19:13:18.177Z,17.65
2019-05-17T19:16:12.701Z,22.17
2019-05-17T19:19:09.170Z,27.07
2019-05-17T19:22:03.867Z,23.40
2019-05-17T19:24:58.639Z,25.08
2019-05-17T19:27:54.404Z,20.40
2019-05-17T19:30:51.472Z,27.93
2019-05-17T19:33:46.741Z,21.75
2019-05-17T19:36:41.766Z,21.50
2019-05-17T19:39:36.620Z,22.73
2019-05-17T19:42:32.187Z,23.87
2019-05-17T19:45:27.515Z,21.75
2019-05-17T19:48:22.933Z,23.52
2019-05-17T19:51:17.877Z,29.20
2019-05-17T19:54:12.718Z,28.75
2019-05-17T19:57:08.414Z,27.87
2019-05-17T20:00:04.515Z,26.07
2019-05-17T20:03:00.011Z,22.37
2019-05-17T20:05:55.475Z,20.90
2019-05-17T20:08:51.876Z,25.27
2019-05-17T20:11:48.076Z,21.97
2019-05-17T20:14:44.334Z,25.27
2019-05-17T20:17:40.618Z,24.07
2019-05-17T20:20:40.461Z,23.15
2019-05-17T20:23:37.167Z,18.82
2019-05-17T20:26:34.237Z,24.47
2019-05-17T20:29:30.816Z,24.90
2019-05-17T20:32:26.317Z,28.60
2019-05-17T20:35:22.741Z,29.50
2019-05-17T20:38:19.107Z,24.12
2019-05-17T20:41:15.047Z,26.75
2019-05-17T20:44:11.194Z,17.52
2019-05-17T20:47:05.462Z,24.20
2019-05-17T20:50:00.575Z,24.65
2019-05-17T20:52:54.997Z,22.62
2019-05-17T20:55:49.480Z,26.10
2019-05-17T20:58:44.267Z,27.35
2019-05-17T21:01:38.950Z,25.12
2019-05-17T21:04:33.331Z,27.95
2019-05-17T21:07:29.180Z,28.83
2019-05-17T21:10:25.061Z,26.35
2019-05-17T21:13:19.632Z,32.70
2019-05-17T21:16:14.516Z,27.80
2019-05-17T21:19:09.214Z,29.63
2019-05-17T21:22:04.008Z,32.50
2019-05-17T21:24:58.785Z,30.30
2019-05-17T21:27:53.289Z,27.77
2019-05-17T21:30:49.018Z,32.85
2019-05-17T21:33:44.195Z,28.75
2019-05-17T21:36:41.755Z,27.82
2019-05-17T21:39:41.561Z,30.75
2019-05-17T21:42:38.026Z,29.18
2019-05-17T21:45:36.154Z,30.55
2019-05-17T21:48:34.282Z,33.33
2019-05-17T21:51:31.194Z,27.37
2019-05-17T21:54:27.934Z,28.05
2019-05-17T21:57:24.632Z,27.60
2019-05-17T22:00:30.375Z,31.60
2019-05-17T22:03:29.014Z,30.17
2019-05-17T22:06:26.524Z,31.23
2019-05-17T22:09:24.723Z,30.82
2019-05-17T22:12:22.141Z,38.23
2019-05-17T22:15:20.001Z,23.57
2019-05-17T22:18:18.629Z,30.35
2019-05-17T22:21:13.693Z,22.25
2019-05-17T22:24:08.603Z,27.98
2019-05-17T22:27:05.498Z,24.27
2019-05-17T22:30:01.288Z,29.12
2019-05-17T22:32:56.351Z,26.17
2019-05-17T22:35:52.870Z,26.12
2019-05-17T22:38:47.398Z,25.75
2019-05-17T22:41:41.601Z,23.75
2019-05-17T22:44:36.823Z,25.08
2019-05-17T22:47:31.227Z,24.80
2019-05-17T22:50:25.086Z,24.77
2019-05-17T22:53:19.601Z,25.62
2019-05-17T22:56:13.956Z,25.10
2019-05-17T22:59:08.361Z,23.90
2019-05-17T23:02:02.923Z,23.35
2019-05-17T23:04:57.358Z,25.92
2019-05-17T23:07:51.526Z,21.27
2019-05-17T23:10:45.987Z,24.67
2019-05-17T23:13:41.869Z,23.00
2019-05-17T23:16:50.536Z,19.25
2019-05-17T23:19:32.466Z,21.00
2019-05-17T23:22:26.706Z,22.35
2019-05-17T23:25:22.078Z,22.25
2019-05-17T23:28:16.315Z,28.83
2019-05-17T23:31:11.063Z,23.45
2019-05-17T23:34:05.783Z,20.62
2019-05-17T23:37:00.356Z,33.00
2019-05-17T23:39:55.044Z,27.55
2019-05-17T23:42:49.393Z,27.93
2019-05-17T23:45:44.907Z,27.90
2019-05-17T23:48:39.406Z,29.37
2019-05-17T23:51:33.696Z,23.73
2019-05-17T23:54:27.944Z,29.10
2019-05-17T23:57:22.262Z,27.55
